15:58
Airports
Links
Donate
Help keep this website running!
PayPal
Bitcoin
METAR
KVUO 191553Z AUTO VRB05KT 9SM -SN OVC040 00/M03 A3015 RMK AO2 SNB48 SLP211 P0000 T00001028
Current Weather Conditions at KVUO
VFR 15:53:00 19-02-18
Automated station, no observer
Altimeter:30.15 hg
Temp:0.0°c 32°f
Dew point:-2.8°c 28°f
Wind:5 knots, 5.8 mph, 3 m/s,
Variable direction
Visibility:9.0 statute miles
4000(OVC) Overcast
Past METAR reports
VFR 15:19:00 19-02-18
Automated station, no observer
Altimeter:30.13 hg
Temp:0.0°c 32°f
Dew point:-2.8°c 28°f
Wind:3 knots, 3.5 mph, 2 m/s, from 320°
Visibility:10.0 statute miles
4000(OVC) Overcast
2300(SCT) Scattered
1800(FEW) A few
KVUO 191519Z AUTO 32003KT 10SM FEW018 SCT023 OVC040 00/M03 A3013 RMK AO2 T00001028
MVFR 15:11:00 19-02-18
Automated station, no observer
Altimeter:30.12 hg
Temp:0.0°c 32°f
Dew point:-2.8°c 28°f
Wind:4 knots, 4.6 mph, 2 m/s, from 310°
Visibility:10.0 statute miles
4200(OVC) Overcast
2100(BKN) Broken
1600(FEW) A few
KVUO 191511Z AUTO 31004KT 10SM FEW016 BKN021 OVC042 00/M03 A3012 RMK AO2 T00001028
VFR 14:53:00 19-02-18
Automated station, no observer
Altimeter:30.11 hg
Temp:0.0°c 32°f
Dew point:-2.2°c 28°f
Wind:0 knots, 0 mph, 0 m/s,
Variable direction
Visibility:10.0 statute miles
5000(OVC) Overcast
4400(BKN) Broken
2100(SCT) Scattered
KVUO 191453Z AUTO 00000KT 10SM SCT021 BKN044 OVC050 00/M02 A3011 RMK AO2 SLP197 T00001022 51029
VFR 13:53:00 19-02-18
Automated station, no observer
Altimeter:30.09 hg
Temp:0.0°c 32°f
Dew point:-2.2°c 28°f
Wind:0 knots, 0 mph, 0 m/s,
Variable direction
Visibility:10.0 statute miles
8000(OVC) Overcast
5500(SCT) Scattered
KVUO 191353Z AUTO 00000KT 10SM SCT055 OVC080 00/M02 A3009 RMK AO2 SLP188 T00001022
VFR 12:53:00 19-02-18
Automated station, no observer
Altimeter:30.05 hg
Temp:-0.6°c 32°f
Dew point:-2.2°c 28°f
Wind:0 knots, 0 mph, 0 m/s,
Variable direction
Visibility:10.0 statute miles
7000(OVC) Overcast
KVUO 191253Z AUTO 00000KT 10SM OVC070 M01/M02 A3005 RMK AO2 SLP177 T10061022
VFR 11:53:00 19-02-18
Automated station, no observer
Altimeter:30.03 hg
Temp:0.0°c 32°f
Dew point:-2.8°c 28°f
Wind:0 knots, 0 mph, 0 m/s,
Variable direction
Visibility:10.0 statute miles
7000(OVC) Overcast
KVUO 191153Z AUTO 00000KT 10SM OVC070 00/M03 A3003 RMK AO2 SLP168 60000 70017 T00001028 10006 20000 51021
TAF
No TAF for KVUO
Forecast at KVUO
No Forecast Reports for KVUO